Map

Track Data

SID SEASON NUMBER BASIN SUBBASIN NAME ISO_TIME NATURE LAT LON WMO_WIND WMO_PRES WMO_AGENCY TRACK_TYPE DIST2LAND LANDFALL IFLAG USA_AGENCY USA_ATCF_ID USA_LAT USA_LON USA_RECORD USA_STATUS USA_WIND USA_PRES USA_SSHS USA_R34_NE USA_R34_SE USA_R34_SW USA_R34_NW USA_R50_NE USA_R50_SE USA_R50_SW USA_R50_NW USA_R64_NE USA_R64_SE USA_R64_SW USA_R64_NW USA_POCI USA_ROCI USA_RMW USA_EYE TOKYO_LAT TOKYO_LON TOKYO_GRADE TOKYO_WIND TOKYO_PRES TOKYO_R50_DIR TOKYO_R50_LONG TOKYO_R50_SHORT TOKYO_R30_DIR TOKYO_R30_LONG TOKYO_R30_SHORT TOKYO_LAND CMA_LAT CMA_LON CMA_CAT CMA_WIND CMA_PRES HKO_LAT HKO_LON HKO_CAT HKO_WIND HKO_PRES NEWDELHI_LAT NEWDELHI_LON NEWDELHI_GRADE NEWDELHI_WIND NEWDELHI_PRES NEWDELHI_CI NEWDELHI_DP NEWDELHI_POCI REUNION_LAT REUNION_LON REUNION_TYPE REUNION_WIND REUNION_PRES REUNION_TNUM REUNION_CI REUNION_RMW REUNION_R34_NE REUNION_R34_SE REUNION_R34_SW REUNION_R34_NW REUNION_R50_NE REUNION_R50_SE REUNION_R50_SW REUNION_R50_NW REUNION_R64_NE REUNION_R64_SE REUNION_R64_SW REUNION_R64_NW BOM_LAT BOM_LON BOM_TYPE BOM_WIND BOM_PRES BOM_TNUM BOM_CI BOM_RMW BOM_R34_NE BOM_R34_SE BOM_R34_SW BOM_R34_NW BOM_R50_NE BOM_R50_SE BOM_R50_SW BOM_R50_NW BOM_R64_NE BOM_R64_SE BOM_R64_SW BOM_R64_NW BOM_ROCI BOM_POCI BOM_EYE BOM_POS_METHOD BOM_PRES_METHOD NADI_LAT NADI_LON NADI_CAT NADI_WIND NADI_PRES WELLINGTON_LAT WELLINGTON_LON WELLINGTON_WIND WELLINGTON_PRES DS824_LAT DS824_LON DS824_STAGE DS824_WIND DS824_PRES TD9636_LAT TD9636_LON TD9636_STAGE TD9636_WIND TD9636_PRES TD9635_LAT TD9635_LON TD9635_WIND TD9635_PRES TD9635_ROCI NEUMANN_LAT NEUMANN_LON NEUMANN_CLASS NEUMANN_WIND NEUMANN_PRES MLC_LAT MLC_LON MLC_CLASS MLC_WIND MLC_PRES USA_GUST BOM_GUST BOM_GUST_PER REUNION_GUST REUNION_GUST_PER USA_SEAHGT USA_SEARAD_NE USA_SEARAD_SE USA_SEARAD_SW USA_SEARAD_NW STORM_SPEED STORM_DIR
1997277S04170 1998 91 SP MM LUSI 1997-10-04 06:00:00 TS -4.00000 170.000 main 1120 1120 O___________O_ jtwc_sh SH021998 -4.00000 170.000 15 -1 -4.00000 170.000 TC 15 3 107
1997277S04170 1998 91 SP MM LUSI 1997-10-04 09:00:00 TS -4.04000 170.130 main 1130 1130 P___________P_ SH021998 -4.04000 170.130 15 -1 -4.04000 170.130 TC 15 3 109
1997277S04170 1998 91 SP MM LUSI 1997-10-04 12:00:00 TS -4.10000 170.300 main 1145 1145 O___________O_ jtwc_sh SH021998 -4.10000 170.300 15 -1 -4.10000 170.300 TC 15 4 111
1997277S04170 1998 91 SP MM LUSI 1997-10-04 15:00:00 TS -4.19250 170.535 main 1160 1160 P___________P_ SH021998 -4.19250 170.535 15 -1 -4.19250 170.535 TC 15 5 112
1997277S04170 1998 91 SP MM LUSI 1997-10-04 18:00:00 TS -4.30000 170.800 main 1180 1180 O___________O_ jtwc_sh SH021998 -4.30000 170.800 15 -1 -4.30000 170.800 TC 15 5 113
1997277S04170 1998 91 SP MM LUSI 1997-10-04 21:00:00 TS -4.39997 171.035 main 1191 1191 P___________P_ SH021998 -4.39997 171.035 15 -1 -4.39997 171.035 TC 15 5 112
1997277S04170 1998 91 SP MM LUSI 1997-10-05 00:00:00 TS -4.50000 171.300 main 1211 1211 O___________O_ jtwc_sh SH021998 -4.50000 171.300 15 -1 -4.50000 171.300 TC 15 6 108
1997277S04170 1998 91 SP MM LUSI 1997-10-05 03:00:00 TS -4.60000 171.635 main 1232 1232 P___________P_ SH021998 -4.60000 171.635 15 -1 -4.60000 171.635 TC 15 7 106
1997277S04170 1998 91 SP MM LUSI 1997-10-05 06:00:00 TS -4.70000 172.000 main 1263 1263 O___________O_ jtwc_sh SH021998 -4.70000 172.000 15 -1 -4.70000 172.000 TC 15 8 104
1997277S04170 1998 91 SP MM LUSI 1997-10-05 09:00:00 TS -4.78502 172.380 main 1277 1277 P___________P_ SH021998 -4.78502 172.380 15 -1 -4.78502 172.380 TC 15 7 106
1997277S04170 1998 91 SP MM LUSI 1997-10-05 12:00:00 TS -4.90000 172.700 main 1284 1277 O___________O_ jtwc_sh SH021998 -4.90000 172.700 15 -1 -4.90000 172.700 TC 15 6 121
1997277S04170 1998 91 SP MM LUSI 1997-10-05 15:00:00 TS -5.08497 172.888 main 1277 1263 P___________P_ SH021998 -5.08497 172.888 15 -1 -5.08497 172.888 TC 15 5 143
1997277S04170 1998 91 SP MM LUSI 1997-10-05 18:00:00 TS -5.30000 173.000 main 1263 1250 O___________O_ jtwc_sh SH021998 -5.30000 173.000 15 -1 -5.30000 173.000 TC 15 5 149
1997277S04170 1998 91 SP MM LUSI 1997-10-05 21:00:00 TS -5.50750 173.137 main 1250 1236 P___________P_ SH021998 -5.50750 173.137 15 -1 -5.50750 173.137 TC 15 4 154
1997277S04170 1998 91 SP MM LUSI 1997-10-06 00:00:00 TS -5.70000 173.200 main 1236 1217 O___________O_ jtwc_sh SH021998 -5.70000 173.200 15 -1 -5.70000 173.200 TC 15 4 176
1997277S04170 1998 91 SP MM LUSI 1997-10-06 03:00:00 TS -5.87999 173.145 main 1211 1196 P___________P_ SH021998 -5.87999 173.145 15 -1 -5.87999 173.145 TC 15 4 213
1997277S04170 1998 91 SP MM LUSI 1997-10-06 06:00:00 TS -6.00000 173.000 main 1196 1184 O___________O_ jtwc_sh SH021998 -6.00000 173.000 15 -1 -6.00000 173.000 TC 15 4 247
1997277S04170 1998 91 SP MM LUSI 1997-10-06 09:00:00 TS -6.02251 172.815 main 1184 1173 P___________P_ SH021998 -6.02251 172.815 15 -1 -6.02251 172.815 TC 15 4 270
1997277S04170 1998 91 SP MM LUSI 1997-10-06 12:00:00 TS -6.00000 172.600 main 1173 1162 O___________O_ jtwc_sh SH021998 -6.00000 172.600 15 -1 -6.00000 172.600 TC 15 4 273
1997277S04170 1998 91 SP MM LUSI 1997-10-06 15:00:00 TS -5.99998 172.408 main 1162 1150 P___________P_ SH021998 -5.99998 172.408 17 -1 -5.99998 172.408 TC 17 4 270
1997277S04170 1998 91 SP MM LUSI 1997-10-06 18:00:00 TS -6.00000 172.200 main 1150 1139 O___________O_ jtwc_sh SH021998 -6.00000 172.200 20 -1 -6.00000 172.200 TC 20 4 270
1997277S04170 1998 91 SP MM LUSI 1997-10-06 21:00:00 TS -5.99999 171.965 main 1139 1122 P___________P_ SH021998 -5.99999 171.965 20 -1 -5.99999 171.965 TC 20 5 270
1997277S04170 1998 91 SP MM LUSI 1997-10-07 00:00:00 TS -6.00000 171.700 main 1122 1106 O___________O_ jtwc_sh SH021998 -6.00000 171.700 20 -1 -6.00000 171.700 TC 20 6 270
1997277S04170 1998 91 SP MM LUSI 1997-10-07 03:00:00 TS -6.00001 171.400 main 1106 1091 P___________P_ SH021998 -6.00001 171.400 20 -1 -6.00001 171.400 TC 20 6 270
1997277S04170 1998 91 SP MM LUSI 1997-10-07 06:00:00 TS -6.00000 171.100 main 1091 1073 O___________O_ jtwc_sh SH021998 -6.00000 171.100 20 -1 -6.00000 171.100 TC 20 6 270
1997277S04170 1998 91 SP MM LUSI 1997-10-07 09:00:00 TS -5.99999 170.835 main 1073 1054 P___________P_ SH021998 -5.99999 170.835 20 -1 -5.99999 170.835 TC 20 5 270
1997277S04170 1998 91 SP MM LUSI 1997-10-07 12:00:00 TS -6.00000 170.600 main 1054 1035 O___________O_ jtwc_sh SH021998 -6.00000 170.600 20 -1 -6.00000 170.600 TC 20 4 272
1997277S04170 1998 91 SP MM LUSI 1997-10-07 15:00:00 TS -5.98498 170.392 main 1035 1016 P___________P_ SH021998 -5.98498 170.392 22 -1 -5.98498 170.392 TC 22 4 270
1997277S04170 1998 91 SP MM LUSI 1997-10-07 18:00:00 TS -6.00000 170.200 main 1016 991 O___________O_ jtwc_sh SH021998 -6.00000 170.200 25 -1 -6.00000 170.200 TC 25 4 257
1997277S04170 1998 91 SP MM LUSI 1997-10-07 21:00:00 TS -6.07750 169.993 main 991 949 P___________P_ SH021998 -6.07750 169.993 25 -1 -6.07750 169.993 TC 25 7 214
1997277S04170 1998 91 SP MM LUSI 1997-10-08 00:00:00 TS -6.54000 169.840 15 1004 nadi main 949 923 O_______O___O_ jtwc_sh SH021998 -6.20000 169.800 25 -1 -7.90000 170.000 15 1004 -7.90000 170.000 15 1004 -6.20000 169.800 TC 25 8 199
1997277S04170 1998 91 SP MM LUSI 1997-10-08 03:00:00 TS -6.82582 169.732 main 923 903 P______IP___P_ SH021998 -6.34248 169.650 25 -1 -7.79251 169.897 17 1003 -7.79251 169.897 17 1003 -6.34248 169.650 TC 25 5 204
1997277S04170 1998 91 SP MM LUSI 1997-10-08 06:00:00 TS -7.01429 169.629 20 1002 nadi main 903 888 O_______O___O_ jtwc_sh SH021998 -6.50000 169.500 25 -1 -7.70000 169.800 20 1002 -7.70000 169.800 20 1002 -6.50000 169.500 TC 25 4 217
1997277S04170 1998 91 SP MM LUSI 1997-10-08 09:00:00 TS -7.13500 169.500 main 888 873 P______IP___P_ SH021998 -6.63502 169.293 27 -1 -7.63499 169.708 22 1001 -7.63499 169.708 22 1001 -6.63502 169.293 TC 27 3 236
1997277S04170 1998 91 SP MM LUSI 1997-10-08 12:00:00 TS -7.20000 169.350 25 1000 nadi main 873 848 O_______O___O_ jtwc_sh SH021998 -6.80000 169.100 30 -1 -7.60000 169.600 25 1000 -7.60000 169.600 25 1000 -6.80000 169.100 TC 30 3 240
1997277S04170 1998 91 SP MM LUSI 1997-10-08 15:00:00 TS -7.29875 169.210 main 848 833 P______IP___P_ SH021998 -7.03499 168.963 30 -1 -7.56250 169.457 25 1000 -7.56250 169.457 25 1000 -7.03499 168.963 TC 30 4 225
1997277S04170 1998 91 SP MM LUSI 1997-10-08 18:00:00 TS -7.45000 169.100 25 1000 nadi main 833 813 O_______O___O_ jtwc_sh SH021998 -7.30000 168.900 30 -1 -7.60000 169.300 25 1000 -7.60000 169.300 25 1000 -7.30000 168.900 TC 30 4 209
1997277S04170 1998 91 SP MM LUSI 1997-10-08 21:00:00 TS -7.66000 169.009 main 809 799 P______IP___P_ SH021998 -7.54999 168.912 32 -1 -7.77001 169.105 27 999 -7.77001 169.105 27 999 -7.54999 168.912 TC 32 5 192
1997277S04170 1998 91 SP MM LUSI 1997-10-09 00:00:00 TS -7.90000 169.000 30 998 nadi main 799 787 O_______O___O_ jtwc_sh SH021998 -7.80000 169.000 35 0 -8.00000 169.000 30 998 -8.00000 169.000 30 998 -7.80000 169.000 TC 35 5 168
1997277S04170 1998 91 SP MM LUSI 1997-10-09 03:00:00 TS -8.12123 169.105 main 787 770 P______IP___P_ SH021998 -8.02746 169.105 35 0 -8.21501 169.105 30 997 -8.21501 169.105 30 997 -8.02746 169.105 TC 35 5 147
1997277S04170 1998 91 SP MM LUSI 1997-10-09 06:00:00 TS -8.35000 169.300 30 997 nadi main 774 758 O_______O___O_ jtwc_sh SH021998 -8.30000 169.300 35 0 -8.40000 169.300 30 997 -8.40000 169.300 30 997 -8.30000 169.300 TC 35 6 137
1997277S04170 1998 91 SP MM LUSI 1997-10-09 09:00:00 TS -8.55498 169.513 main 752 741 P______IP___P_ SH021998 -8.64755 169.620 37 0 -8.46241 169.405 32 996 -8.46241 169.405 32 996 -8.64755 169.620 TC 37 7 135
1997277S04170 1998 91 SP MM LUSI 1997-10-09 12:00:00 TS -8.85000 169.800 35 995 nadi main 746 720 O_______O___O_ jtwc_sh SH021998 -9.10000 170.000 40 0 -8.60000 169.600 35 995 -8.60000 169.600 35 995 -9.10000 170.000 TC 40 10 139
1997277S04170 1998 91 SP MM LUSI 1997-10-09 15:00:00 TS -9.30754 170.178 main 720 686 P______IP___P_ SH021998 -9.66250 170.358 42 0 -8.95257 169.998 37 992 -8.95257 169.998 37 992 -9.66250 170.358 TC 42 13 143
1997277S04170 1998 91 SP MM LUSI 1997-10-09 18:00:00 TS -9.90000 170.600 40 990 nadi main 686 657 O_______O___O_ jtwc_sh SH021998 -10.3000 170.700 45 0 -9.50000 170.500 40 990 -9.50000 170.500 40 990 -10.3000 170.700 TC 45 15 146
1997277S04170 1998 91 SP MM LUSI 1997-10-09 21:00:00 TS -10.5513 171.026 main 649 622 P______IP___P_ SH021998 -10.9350 171.015 47 0 -10.1677 171.037 42 988 -10.1677 171.037 42 988 -10.9350 171.015 TC 47 16 151
1997277S04170 1998 91 SP MM LUSI 1997-10-10 00:00:00 TS -11.3000 171.400 45 987 nadi main 623 585 O_______O___O_ jtwc_sh SH021998 -11.6000 171.300 50 0 -11.0000 171.500 45 987 -11.0000 171.500 45 987 -11.6000 171.300 TC 50 17 159
1997277S04170 1998 91 SP MM LUSI 1997-10-10 03:00:00 TS -12.1424 171.644 main 585 554 P______IP___P_ SH021998 -12.2924 171.550 52 0 -11.9923 171.738 47 986 -11.9923 171.738 47 986 -12.2924 171.550 TC 52 18 165
1997277S04170 1998 91 SP MM LUSI 1997-10-10 06:00:00 TS -13.0000 171.850 50 985 nadi main 554 543 O_______O___O_ jtwc_sh SH021998 -13.0000 171.800 55 0 -13.0000 171.900 50 985 -13.0000 171.900 50 985 -13.0000 171.800 TC 55 17 164
1997277S04170 1998 91 SP MM LUSI 1997-10-10 09:00:00 TS -13.7912 172.118 main 540 527 P______IP___P_ SH021998 -13.7150 172.093 57 0 -13.8674 172.143 52 982 -13.8674 172.143 52 982 -13.7150 172.093 TC 57 16 160
1997277S04170 1998 91 SP MM LUSI 1997-10-10 12:00:00 TS -14.5000 172.400 55 980 nadi main 532 528 O_______O___O_ jtwc_sh SH021998 -14.4000 172.400 60 0 -14.6000 172.400 55 980 -14.6000 172.400 55 980 -14.4000 172.400 TC 60 14 158
1997277S04170 1998 91 SP MM LUSI 1997-10-10 15:00:00 TS -15.0974 172.668 main 541 529 P______IP___P_ SH021998 -15.0224 172.693 57 0 -15.1724 172.643 55 980 -15.1724 172.643 55 980 -15.0224 172.693 TC 57 13 155
1997277S04170 1998 91 SP MM LUSI 1997-10-10 18:00:00 TS -15.6500 172.950 55 980 nadi main 519 470 O_______O___O_ jtwc_sh SH021998 -15.6000 173.000 55 0 -15.7000 172.900 55 980 -15.7000 172.900 55 980 -15.6000 173.000 TC 55 13 154
1997277S04170 1998 91 SP MM LUSI 1997-10-10 21:00:00 TS -16.2575 173.264 main 456 404 P______IP___P_ SH021998 -16.1574 173.335 55 0 -16.3575 173.192 52 982 -16.3575 173.192 52 982 -16.1574 173.335 TC 55 14 153
1997277S04170 1998 91 SP MM LUSI 1997-10-11 00:00:00 TS -16.8500 173.600 50 985 nadi main 404 356 O_______O___O_ jtwc_sh SH021998 -16.7000 173.700 55 0 -17.0000 173.500 50 985 -17.0000 173.500 50 985 -16.7000 173.700 TC 55 13 151
1997277S04170 1998 91 SP MM LUSI 1997-10-11 03:00:00 TS -17.3973 173.924 main 356 307 P______IP___P_ SH021998 -17.2573 174.070 55 0 -17.5373 173.778 47 986 -17.5373 173.778 47 986 -17.2573 174.070 TC 55 13 148
1997277S04170 1998 91 SP MM LUSI 1997-10-11 06:00:00 TS -17.9000 174.300 45 987 nadi main 307 255 O_______O___O_ jtwc_sh SH021998 -17.8000 174.500 55 0 -18.0000 174.100 45 987 -18.0000 174.100 45 987 -17.8000 174.500 TC 55 13 139
1997277S04170 1998 91 SP MM LUSI 1997-10-11 09:00:00 TS -18.3538 174.785 main 257 219 P______IP___P_ SH021998 -18.2927 175.050 52 0 -18.4150 174.520 42 988 -18.4150 174.520 42 988 -18.2927 175.050 TC 52 13 134
1997277S04170 1998 91 SP MM LUSI 1997-10-11 12:00:00 TS -18.8000 175.300 40 990 nadi main 219 200 O_______O___O_ jtwc_sh SH021998 -18.8000 175.600 50 0 -18.8000 175.000 40 990 -18.8000 175.000 40 990 -18.8000 175.600 TC 50 13 134
1997277S04170 1998 91 SP MM LUSI 1997-10-11 15:00:00 TS -19.2511 175.766 main 207 207 P______IP___P_ SH021998 -19.3774 176.053 50 0 -19.1248 175.479 37 992 -19.1248 175.479 37 992 -19.3774 176.053 TC 50 13 140
1997277S04170 1998 91 SP MM LUSI 1997-10-11 18:00:00 TS -19.8000 176.200 35 995 nadi main 222 222 O_______O___O_ jtwc_sh SH021998 -20.0000 176.400 50 0 -19.6000 176.000 35 995 -19.6000 176.000 35 995 -20.0000 176.400 TC 50 15 148
1997277S04170 1998 91 SP MM LUSI 1997-10-11 21:00:00 TS -20.5188 176.623 main 277 277 P______IP___P_ SH021998 -20.6574 176.645 47 0 -20.3802 176.600 35 995 -20.3802 176.600 35 995 -20.6574 176.645 TC 47 17 155
1997277S04170 1998 91 SP MM LUSI 1997-10-12 00:00:00 TS -21.3467 176.987 35 995 nadi main 348 348 O_______O___O_ jtwc_sh SH021998 -21.3000 176.800 45 0 -21.4000 177.200 35 995 -21.4000 177.200 35 995 -21.3000 176.800 TC 45 18 160
1997277S04170 1998 91 SP MM LUSI 1997-10-12 03:00:00 TS -22.2028 177.263 main 440 440 P______IP___P_ SH021998 -21.8724 176.900 42 0 -22.5650 177.724 32 996 -22.6825 177.759 32 996 -21.8724 176.900 TC 42 17 165
1997277S04170 1998 91 SP MM LUSI 1997-10-12 06:00:00 TS -22.9385 177.462 30 997 nadi main 516 516 O_______O___O_ jtwc_sh SH021998 -22.4000 177.000 40 0 -23.8000 178.200 30 997 -23.8000 178.200 30 997 -22.4000 177.000 TC 40 12 165
1997277S04170 1998 91 SP MM LUSI 1997-10-12 09:00:00 TS -23.3740 177.593 main 571 571 P_______P___P_ SH021998 -22.9149 177.170 37 0 -24.2921 178.439 30 997 -22.9149 177.170 TC 37 9 159
1997277S04170 1998 91 SP MM LUSI 1997-10-12 12:00:00 TS -23.7667 177.800 main 615 615 O_______O___O_ jtwc_sh SH021998 -23.4000 177.400 35 0 -24.5000 178.600 30 997 -23.4000 177.400 TC 35 9 151
1997277S04170 1998 91 SP MM LUSI 1997-10-12 15:00:00 TS -24.1549 178.061 main 659 659 P_______P___P_ SH021998 -23.8575 177.685 32 -1 -24.7498 178.813 30 997 -23.8575 177.685 TC 32 9 146
1997277S04170 1998 91 SP MM LUSI 1997-10-12 18:00:00 TS -24.5333 178.367 main 693 693 O_______O___O_ jtwc_sh SH021998 -24.3000 178.000 30 -1 -25.0000 179.100 30 997 -24.3000 178.000 TC 30 10 144
1997277S04170 1998 91 SP MM LUSI 1997-10-12 21:00:00 TS -24.9473 178.689 main 739 739 P_______P___P_ SH021998 -24.7573 178.285 30 -1 -25.3274 179.498 27 999 -24.7573 178.285 TC 30 11 140
1997277S04170 1998 91 SP MM LUSI 1997-10-13 00:00:00 TS -25.4000 179.160 25 1001 wellington main 800 800 O_______O___O_ jtwc_sh SH021998 -25.2000 178.600 30 -1 -25.7000 180.000 25 1001 -25.2000 178.600 TC 30 13 133
1997277S04170 1998 91 SP MM LUSI 1997-10-13 03:00:00 TS -25.8476 179.775 main 854 854 P_______P___P_ SH021998 -25.6103 178.979 30 -1 -26.0849 -179.430 25 1001 -25.6103 178.979 TC 30 16 126
1997277S04170 1998 91 SP MM LUSI 1997-10-13 06:00:00 TS -26.3333 180.600 25 1001 wellington main 927 927 O_______O___O_ jtwc_sh SH021998 -26.0000 179.400 30 -1 -26.5000 -178.800 25 1001 -26.0000 179.400 TC 30 21 120
1997277S04170 1998 91 SP MM LUSI 1997-10-13 09:00:00 NR -26.8882 181.756 main 1029 1029 ________P_____ SH021998 -1 -26.8882 -178.244 25 1001 TC 20 122
1997277S04170 1998 91 SP MM LUSI 1997-10-13 12:00:00 NR -27.4000 182.500 25 1001 wellington main 1108 1108 ________O_____ -1 -27.4000 -177.500 25 1001 21 127
1997277S04170 1998 91 SP MM LUSI 1997-10-13 15:00:00 NR -28.1366 183.626 main 1166 1131 ________P_____ -1 -28.1366 -176.374 25 1001 27 126
1997277S04170 1998 91 SP MM LUSI 1997-10-13 18:00:00 NR -29.0000 185.000 25 1001 wellington main 1136 ________O_____ -1 -29.0000 -175.000 25 1001 30 126

Digital Typhoon Data and Search

About IBTrACS Database

This database is a web-friendly format of International Best Track Archive for Climate Stewardship (IBTrACS), a global best track data archive curated by NOAA dating back to 1842.

Updated: 2021-12-03